Time;durP1;ratioP1;P1;durP2;ratioP2;P2;SDS_P1;SDS_P2;PMS_P1;PMS_P2;Temp;Humidity;BMP_temperature;BMP_pressure;BME280_temperature;BME280_humidity;BME280_pressure;Samples;Min_cycle;Max_cycle;Signal;HPM_P1;HPM_P2
2023/08/21 00:01:21;;;;;;;18.35;16.40;;;589.50;2432.00;;;;;;4993568;28;20030;-67
2023/08/21 00:03:47;;;;;;;17.48;15.65;;;589.40;2432.00;;;;;;4993228;28;20036;-66
2023/08/21 00:06:12;;;;;;;17.90;16.10;;;589.30;2432.00;;;;;;4993244;28;20019;-66
2023/08/21 00:08:38;;;;;;;19.48;17.65;;;589.30;2432.00;;;;;;4992955;28;20023;-66
2023/08/21 00:11:04;;;;;;;18.40;16.75;;;589.30;2432.00;;;;;;4993433;28;20034;-66
2023/08/21 00:13:29;;;;;;;19.40;17.45;;;589.30;2432.00;;;;;;4993065;28;20038;-66
2023/08/21 00:15:55;;;;;;;22.48;17.25;;;589.40;2432.00;;;;;;4993344;28;20057;-64
2023/08/21 00:18:21;;;;;;;16.60;14.98;;;589.50;2432.00;;;;;;4993494;28;20069;-66
2023/08/21 00:20:47;;;;;;;18.90;17.08;;;589.60;2432.00;;;;;;4992563;28;20038;-67
2023/08/21 00:23:13;;;;;;;18.42;16.63;;;589.60;2432.00;;;;;;4993239;28;20029;-67
2023/08/21 00:25:39;;;;;;;17.95;16.08;;;589.60;2432.00;;;;;;4993114;28;20544;-66
2023/08/21 00:28:05;;;;;;;17.30;15.70;;;589.50;2432.00;;;;;;4992929;28;20476;-67
2023/08/21 00:30:30;;;;;;;18.60;16.70;;;589.40;2432.00;;;;;;4993161;28;20045;-66
2023/08/21 00:32:56;;;;;;;18.05;16.25;;;589.40;2432.00;;;;;;4992863;28;20469;-65
2023/08/21 00:35:22;;;;;;;18.95;17.25;;;589.50;2432.00;;;;;;4992798;28;20018;-68
2023/08/21 00:37:48;;;;;;;17.77;16.08;;;589.50;2432.00;;;;;;4992855;28;20026;-65
2023/08/21 00:40:13;;;;;;;19.33;17.42;;;589.60;2432.00;;;;;;4992633;28;20064;-65
2023/08/21 00:42:39;;;;;;;18.45;16.50;;;589.50;2432.00;;;;;;4992394;28;20461;-66
2023/08/21 00:45:08;;;;;;;18.92;17.02;;;589.50;2432.00;;;;;;4992520;28;20457;-67
2023/08/21 00:47:35;;;;;;;19.48;17.48;;;589.50;2432.00;;;;;;4992989;28;20034;-66
2023/08/21 00:50:01;;;;;;;19.92;18.00;;;589.50;2432.00;;;;;;4992471;28;20054;-65
2023/08/21 00:52:28;;;;;;;18.30;16.48;;;589.60;2432.00;;;;;;4992385;28;20504;-67
2023/08/21 00:54:55;;;;;;;19.33;16.67;;;589.50;2432.00;;;;;;4992927;28;20082;-66
2023/08/21 00:57:22;;;;;;;20.50;17.85;;;589.30;2432.00;;;;;;4992462;28;20022;-65
2023/08/21 00:59:48;;;;;;;18.77;16.58;;;589.30;2432.00;;;;;;4979396;28;20034;-67
2023/08/21 01:02:14;;;;;;;19.95;17.95;;;589.30;2432.00;;;;;;4992296;28;20085;-67
2023/08/21 01:04:40;;;;;;;19.45;17.58;;;589.30;2432.00;;;;;;4992224;28;20044;-65
2023/08/21 01:07:09;;;;;;;18.20;16.42;;;589.30;2432.00;;;;;;4991735;28;20105;-64
2023/08/21 01:09:47;;;;;;;18.35;16.13;;;589.10;2432.00;;;;;;4992271;28;20054;-66
2023/08/21 01:12:22;;;;;;;20.23;18.05;;;589.10;2432.00;;;;;;4992396;28;20393;-64
2023/08/21 01:15:00;;;;;;;17.45;15.75;;;589.00;2432.00;;;;;;4991737;28;20043;-67
2023/08/21 01:17:28;;;;;;;20.52;18.52;;;589.00;2432.00;;;;;;4992135;28;20030;-65
2023/08/21 01:19:55;;;;;;;20.48;18.48;;;589.00;2432.00;;;;;;4992001;28;20034;-64
2023/08/21 01:22:25;;;;;;;20.25;18.25;;;589.10;2432.00;;;;;;4992041;28;20033;-65
2023/08/21 01:24:50;;;;;;;23.45;19.60;;;589.10;2432.00;;;;;;4991682;28;20034;-65
2023/08/21 01:27:16;;;;;;;20.98;18.95;;;589.00;2432.00;;;;;;4991640;28;20029;-65
2023/08/21 01:29:43;;;;;;;19.52;17.73;;;589.00;2432.00;;;;;;4991981;28;20554;-65
2023/08/21 01:32:20;;;;;;;18.95;17.00;;;589.00;2432.00;;;;;;4991741;28;20023;-66
2023/08/21 01:34:48;;;;;;;17.80;16.02;;;588.90;2432.00;;;;;;4991488;28;20141;-66
2023/08/21 01:37:14;;;;;;;19.73;17.63;;;589.00;2432.00;;;;;;4991824;28;20035;-65
2023/08/21 01:39:40;;;;;;;18.60;16.58;;;589.10;2432.00;;;;;;4991359;28;20042;-66
2023/08/21 01:42:06;;;;;;;20.02;17.92;;;589.00;2432.00;;;;;;4989685;28;20042;-65
2023/08/21 01:44:31;;;;;;;22.17;19.58;;;589.00;2432.00;;;;;;4974484;28;20041;-65
2023/08/21 01:46:57;;;;;;;20.35;18.20;;;588.90;2432.00;;;;;;4991638;28;20026;-67
2023/08/21 01:49:23;;;;;;;21.05;18.85;;;588.90;2432.00;;;;;;4991517;28;20354;-65
2023/08/21 01:51:49;;;;;;;20.65;18.45;;;588.90;2432.00;;;;;;4973693;28;20049;-68
2023/08/21 01:54:14;;;;;;;19.23;17.42;;;588.90;2432.00;;;;;;4991245;28;20408;-67
2023/08/21 01:56:40;;;;;;;20.65;18.65;;;588.90;2432.00;;;;;;4991651;28;20054;-69
2023/08/21 01:59:09;;;;;;;19.05;17.05;;;588.90;2432.00;;;;;;4991215;28;20034;-65
2023/08/21 02:01:34;;;;;;;21.13;19.02;;;588.90;2432.00;;;;;;4991270;28;20452;-66
2023/08/21 02:04:00;;;;;;;20.23;18.13;;;588.90;2432.00;;;;;;4991418;28;20030;-64
2023/08/21 02:06:26;;;;;;;19.00;17.10;;;588.90;2432.00;;;;;;4990803;28;20102;-65
2023/08/21 02:08:52;;;;;;;19.60;17.80;;;589.00;2432.00;;;;;;4990954;28;20022;-65
2023/08/21 02:11:17;;;;;;;19.30;17.42;;;589.00;2432.00;;;;;;4991177;28;20035;-66
2023/08/21 02:13:43;;;;;;;20.52;18.40;;;589.00;2432.00;;;;;;4990662;28;20583;-65
2023/08/21 02:16:09;;;;;;;20.13;18.27;;;589.10;2432.00;;;;;;4990110;28;20504;-65
2023/08/21 02:18:34;;;;;;;25.40;18.58;;;589.20;2432.00;;;;;;4989699;28;20034;-64
2023/08/21 02:21:01;;;;;;;19.70;17.70;;;589.20;2432.00;;;;;;4990064;28;20031;-66
2023/08/21 02:23:28;;;;;;;18.85;17.15;;;589.20;2432.00;;;;;;4989770;28;20022;-66
2023/08/21 02:25:54;;;;;;;22.05;17.40;;;589.20;2432.00;;;;;;4990147;28;20495;-66
2023/08/21 02:28:20;;;;;;;22.00;19.63;;;589.10;2432.00;;;;;;4989939;28;20117;-66
2023/08/21 02:30:45;;;;;;;19.38;17.40;;;589.00;2432.00;;;;;;4990096;28;20125;-65
2023/08/21 02:33:11;;;;;;;22.05;18.67;;;589.00;2432.00;;;;;;4989915;28;20026;-65
2023/08/21 02:35:37;;;;;;;22.00;19.73;;;588.90;2432.00;;;;;;4989711;28;20420;-67
2023/08/21 02:38:03;;;;;;;20.25;18.15;;;588.80;2432.00;;;;;;4989935;28;20029;-67
2023/08/21 02:40:28;;;;;;;20.70;18.63;;;588.90;2432.00;;;;;;4989418;28;20092;-67
2023/08/21 02:42:54;;;;;;;20.77;18.58;;;588.90;2432.00;;;;;;4972044;28;20536;-65
2023/08/21 02:45:20;;;;;;;21.70;19.65;;;589.00;2432.00;;;;;;4989761;28;20019;-66
2023/08/21 02:47:46;;;;;;;21.63;19.02;;;589.00;2432.00;;;;;;4989776;28;20373;-65
2023/08/21 02:50:11;;;;;;;20.58;18.48;;;589.00;2432.00;;;;;;4990013;28;20072;-66
2023/08/21 02:52:37;;;;;;;21.60;19.35;;;589.00;2432.00;;;;;;4989482;28;20440;-66
2023/08/21 02:55:04;;;;;;;22.17;18.98;;;588.90;2432.00;;;;;;4989633;28;20022;-66
2023/08/21 02:57:30;;;;;;;21.20;17.88;;;588.80;2432.00;;;;;;4989060;28;20029;-65
2023/08/21 02:59:56;;;;;;;21.70;19.40;;;588.80;2432.00;;;;;;4989178;28;20035;-64
2023/08/21 03:02:22;;;;;;;20.38;18.35;;;588.80;2432.00;;;;;;4989620;28;20053;-67
2023/08/21 03:04:49;;;;;;;22.15;18.85;;;564.10;2432.00;;;;;;4989149;28;20030;-65
2023/08/21 03:07:15;;;;;;;19.77;17.60;;;564.10;2432.00;;;;;;4989327;28;20073;-64
2023/08/21 03:09:41;;;;;;;20.90;18.63;;;588.80;2432.00;;;;;;4988960;28;20042;-66
2023/08/21 03:12:08;;;;;;;20.30;17.95;;;588.90;2432.00;;;;;;4974124;28;20149;-64
2023/08/21 03:14:34;;;;;;;19.88;17.85;;;589.00;2432.00;;;;;;4954845;28;1197453;-63
2023/08/21 03:17:00;;;;;;;23.13;18.13;;;589.10;2432.00;;;;;;4997075;28;20118;-65
2023/08/21 03:19:25;;;;;;;20.85;18.80;;;589.00;2432.00;;;;;;4992641;28;20077;-65
2023/08/21 03:21:51;;;;;;;21.95;19.58;;;588.80;2432.00;;;;;;4990030;28;20037;-65
2023/08/21 03:24:17;;;;;;;21.00;19.08;;;564.10;2432.00;;;;;;4989808;28;20105;-65
2023/08/21 03:26:44;;;;;;;21.27;17.70;;;564.00;2432.00;;;;;;4989929;28;20452;-64
2023/08/21 03:29:09;;;;;;;21.67;19.02;;;563.90;2432.00;;;;;;4988920;28;20381;-64
2023/08/21 03:31:35;;;;;;;25.67;20.20;;;563.80;2432.00;;;;;;4989878;28;20030;-64
2023/08/21 03:34:01;;;;;;;20.17;18.17;;;563.70;2432.00;;;;;;4989874;28;20023;-64
2023/08/21 03:36:33;;;;;;;23.35;20.95;;;563.70;2432.00;;;;;;4989876;28;20037;-65
2023/08/21 03:38:59;;;;;;;21.95;19.75;;;563.60;2432.00;;;;;;4989911;28;20029;-64
2023/08/21 03:41:25;;;;;;;21.85;19.55;;;563.60;2432.00;;;;;;4989860;28;20042;-64
2023/08/21 03:43:51;;;;;;;20.40;18.40;;;563.60;2432.00;;;;;;4989766;28;20053;-65
2023/08/21 03:46:17;;;;;;;21.38;19.27;;;563.60;2432.00;;;;;;4989477;28;20027;-64
2023/08/21 03:48:43;;;;;;;22.55;20.23;;;563.70;2432.00;;;;;;4990018;28;20645;-65
2023/08/21 03:51:08;;;;;;;21.33;19.20;;;563.80;2432.00;;;;;;4989527;28;20026;-64
2023/08/21 03:53:34;;;;;;;22.10;19.27;;;563.90;2432.00;;;;;;4989926;28;20026;-66
2023/08/21 03:56:00;;;;;;;22.27;20.00;;;564.00;2432.00;;;;;;4989689;28;20033;-64
2023/08/21 03:58:26;;;;;;;21.85;19.50;;;564.00;2432.00;;;;;;4989621;28;20508;-64
2023/08/21 04:00:52;;;;;;;21.92;19.67;;;564.00;2432.00;;;;;;4989856;28;20046;-64
2023/08/21 04:03:18;;;;;;;20.42;18.50;;;564.00;2432.00;;;;;;4989551;28;20416;-65
2023/08/21 04:05:44;;;;;;;22.17;20.08;;;588.80;2432.00;;;;;;4989518;28;20034;-64
2023/08/21 04:08:10;;;;;;;21.98;19.95;;;588.80;2432.00;;;;;;4989668;28;20027;-64
2023/08/21 04:10:36;;;;;;;21.85;19.33;;;588.80;2432.00;;;;;;4989222;28;20521;-66
2023/08/21 04:13:02;;;;;;;21.17;19.17;;;588.90;2432.00;;;;;;4989612;28;20524;-64
2023/08/21 04:15:28;;;;;;;21.98;19.98;;;589.00;2432.00;;;;;;4989006;28;20177;-67
2023/08/21 04:17:53;;;;;;;22.48;20.15;;;589.00;2432.00;;;;;;4989574;28;20121;-66
2023/08/21 04:20:23;;;;;;;22.08;19.92;;;589.00;2432.00;;;;;;4988835;28;20439;-64
2023/08/21 04:22:49;;;;;;;22.17;20.00;;;589.20;2432.00;;;;;;4989312;28;20058;-66
2023/08/21 04:25:15;;;;;;;20.20;17.60;;;589.20;2432.00;;;;;;4989176;28;20030;-66
2023/08/21 04:27:41;;;;;;;20.88;18.58;;;589.40;2432.00;;;;;;4989091;28;20068;-65
2023/08/21 04:30:08;;;;;;;24.05;19.92;;;589.50;2432.00;;;;;;4971170;28;20551;-63
2023/08/21 04:32:34;;;;;;;21.70;19.70;;;589.70;2432.00;;;;;;4989281;28;20030;-65
2023/08/21 04:35:00;;;;;;;26.50;21.52;;;614.40;2432.00;;;;;;4989109;28;20040;-63
2023/08/21 04:37:26;;;;;;;20.83;18.42;;;614.50;2432.00;;;;;;4989100;28;20023;-64
2023/08/21 04:39:55;;;;;;;20.25;17.63;;;614.60;2432.00;;;;;;4989014;28;20043;-65
2023/08/21 04:42:22;;;;;;;21.10;19.10;;;614.90;2432.00;;;;;;4992307;28;20539;-65
2023/08/21 04:44:47;;;;;;;19.50;17.65;;;640.20;2432.00;;;;;;4992304;28;20046;-63
2023/08/21 04:47:21;;;;;;;19.77;17.70;;;640.50;2432.00;;;;;;4990994;28;20077;-64
2023/08/21 04:49:48;;;;;;;22.08;19.88;;;640.60;2432.00;;;;;;4973397;28;20023;-65
2023/08/21 04:52:14;;;;;;;19.83;17.80;;;640.90;2432.00;;;;;;4988993;28;20030;-66
2023/08/21 04:54:40;;;;;;;18.60;16.70;;;665.70;2432.00;;;;;;4991300;28;20033;-65
2023/08/21 04:57:05;;;;;;;19.90;17.90;;;691.30;2432.00;;;;;;4992780;28;20065;-65
2023/08/21 04:59:31;;;;;;;19.23;17.25;;;716.80;2432.00;;;;;;4984865;28;20019;-63
2023/08/21 05:01:57;;;;;;;19.25;17.45;;;717.10;2432.00;;;;;;4986198;28;20037;-62
2023/08/21 05:04:23;;;;;;;20.02;18.20;;;717.40;2432.00;;;;;;4992480;28;20485;-62
2023/08/21 05:06:48;;;;;;;19.00;17.20;;;717.20;2432.00;;;;;;4992052;28;20026;-62
2023/08/21 05:09:14;;;;;;;18.83;16.83;;;716.90;2432.00;;;;;;4991975;28;20033;-62
2023/08/21 05:11:40;;;;;;;17.92;16.25;;;717.00;2432.00;;;;;;4992353;28;20063;-63
2023/08/21 05:14:06;;;;;;;18.73;16.85;;;717.00;2432.00;;;;;;4992021;28;20802;-63
2023/08/21 05:16:32;;;;;;;20.15;17.67;;;717.40;2432.00;;;;;;4992227;28;20034;-63
2023/08/21 05:18:58;;;;;;;18.77;17.08;;;742.40;2432.00;;;;;;4992062;28;20026;-63
2023/08/21 05:21:23;;;;;;;18.35;16.75;;;742.50;2432.00;;;;;;4992047;28;20039;-62
2023/08/21 05:23:49;;;;;;;17.60;15.85;;;743.30;2432.00;;;;;;4992198;28;20535;-63
2023/08/21 05:26:15;;;;;;;19.23;17.10;;;794.00;2432.00;;;;;;4992042;28;20050;-64
2023/08/21 05:28:40;;;;;;;17.98;16.27;;;819.30;2355.20;;;;;;4991845;28;20037;-62
2023/08/21 05:31:06;;;;;;;18.83;17.02;;;845.40;2201.60;;;;;;4991666;28;20081;-62
2023/08/21 05:33:32;;;;;;;18.13;16.55;;;871.30;1996.80;;;;;;4991853;28;20029;-62
2023/08/21 05:35:57;;;;;;;18.23;16.52;;;896.70;1920.00;;;;;;4991356;28;20117;-62
2023/08/21 05:38:23;;;;;;;16.75;15.05;;;896.90;1868.80;;;;;;4991556;28;20030;-63
2023/08/21 05:40:49;;;;;;;18.92;15.50;;;922.40;1843.20;;;;;;4991468;28;20050;-63
2023/08/21 05:43:16;;;;;;;19.02;16.05;;;948.00;1740.80;;;;;;4991704;28;20030;-63
2023/08/21 05:45:42;;;;;;;16.52;15.05;;;973.20;1689.60;;;;;;4991659;28;20022;-62
2023/08/21 05:48:08;;;;;;;16.10;14.70;;;972.90;1689.60;;;;;;4991434;28;20041;-62
2023/08/21 05:50:36;;;;;;;17.98;16.27;;;973.60;1638.40;;;;;;4991491;28;20480;-64
2023/08/21 05:53:04;;;;;;;17.67;16.17;;;998.40;1664.00;;;;;;4990443;28;20029;-63
2023/08/21 05:55:29;;;;;;;19.67;17.83;;;998.70;1612.80;;;;;;4991230;28;20022;-64
2023/08/21 05:57:55;;;;;;;18.20;16.35;;;998.80;1612.80;;;;;;4973728;28;20130;-63
2023/08/21 06:00:21;;;;;;;18.00;16.38;;;999.10;1587.20;;;;;;4991466;28;20165;-63
2023/08/21 06:02:46;;;;;;;18.05;16.25;;;999.30;1561.60;;;;;;4991006;28;20109;-63
2023/08/21 06:05:12;;;;;;;18.38;16.02;;;1024.20;1561.60;;;;;;4991002;28;20113;-61
2023/08/21 06:07:40;;;;;;;18.10;16.42;;;1024.50;1536.00;;;;;;4991043;28;20027;-63
2023/08/21 06:10:07;;;;;;;19.08;17.40;;;1049.60;1536.00;;;;;;4990923;28;20030;-63
2023/08/21 06:12:32;;;;;;;18.50;16.80;;;1050.00;1510.40;;;;;;4991161;28;20110;-63
2023/08/21 06:14:58;;;;;;;16.92;15.43;;;1050.20;1484.80;;;;;;4990539;28;20154;-63
2023/08/21 06:17:24;;;;;;;18.17;16.48;;;1050.40;1484.80;;;;;;4991189;28;20544;-65
2023/08/21 06:19:49;;;;;;;17.33;16.02;;;1075.70;1433.60;;;;;;4990817;28;20117;-63
2023/08/21 06:22:15;;;;;;;18.38;16.83;;;1100.90;1433.60;;;;;;4990833;28;20057;-63
2023/08/21 06:24:41;;;;;;;16.80;15.38;;;1075.90;1408.00;;;;;;4990821;28;20028;-64
2023/08/21 06:27:07;;;;;;;16.08;14.75;;;1101.00;1408.00;;;;;;4990378;28;20488;-62
2023/08/21 06:29:33;;;;;;;18.02;16.25;;;1101.00;1433.60;;;;;;4990707;28;20022;-62
2023/08/21 06:31:58;;;;;;;17.52;16.23;;;1126.50;1408.00;;;;;;4990496;28;20033;-62
2023/08/21 06:34:24;;;;;;;16.17;14.88;;;1127.30;1331.20;;;;;;4973710;28;20026;-62
2023/08/21 06:36:50;;;;;;;18.15;16.75;;;1127.00;1356.80;;;;;;4990532;28;20100;-64
2023/08/21 06:39:15;;;;;;;17.77;16.17;;;1127.30;1331.20;;;;;;4990513;28;20487;-65
2023/08/21 06:41:41;;;;;;;17.55;16.02;;;1126.50;1356.80;;;;;;4990633;28;20163;-62
2023/08/21 06:44:07;;;;;;;18.85;16.90;;;1152.00;1331.20;;;;;;4990255;28;20034;-63
2023/08/21 06:46:33;;;;;;;19.92;18.17;;;1152.40;1305.60;;;;;;4990358;28;20488;-63
2023/08/21 06:48:58;;;;;;;18.23;16.42;;;1152.20;1331.20;;;;;;4990339;28;20022;-63
2023/08/21 06:51:24;;;;;;;18.08;16.55;;;1152.00;1331.20;;;;;;4990217;28;20031;-64
2023/08/21 06:53:50;;;;;;;19.83;18.05;;;1152.70;1305.60;;;;;;4990456;28;20026;-63
2023/08/21 06:56:16;;;;;;;19.38;17.88;;;1152.70;1280.00;;;;;;4989953;28;20054;-63
2023/08/21 06:58:42;;;;;;;19.50;17.85;;;1178.30;1254.40;;;;;;4990147;28;20026;-62
2023/08/21 07:01:07;;;;;;;19.85;18.27;;;1178.50;1228.80;;;;;;4989880;28;20056;-64
2023/08/21 07:03:33;;;;;;;18.23;16.92;;;1177.70;1254.40;;;;;;4989976;28;20023;-63
2023/08/21 07:06:00;;;;;;;19.88;17.92;;;1178.20;1254.40;;;;;;4989807;28;20026;-63
2023/08/21 07:08:27;;;;;;;19.02;17.63;;;1203.20;1228.80;;;;;;4972583;28;20045;-64
2023/08/21 07:10:53;;;;;;;20.80;18.80;;;1178.30;1228.80;;;;;;4990244;28;20037;-63
2023/08/21 07:13:19;;;;;;;18.60;17.13;;;1178.00;1254.40;;;;;;4989806;28;20026;-64
2023/08/21 07:15:46;;;;;;;18.35;16.48;;;1177.70;1254.40;;;;;;4989688;28;20060;-64
2023/08/21 07:18:12;;;;;;;20.13;18.45;;;1178.50;1203.20;;;;;;4990211;28;20040;-63
2023/08/21 07:20:38;;;;;;;19.90;18.23;;;1178.00;1228.80;;;;;;4989821;28;20193;-63
2023/08/21 07:23:04;;;;;;;18.13;16.48;;;1177.70;1254.40;;;;;;4990023;28;20524;-63
2023/08/21 07:25:29;;;;;;;17.60;16.40;;;1178.50;1228.80;;;;;;4989613;28;20029;-63
2023/08/21 07:27:55;;;;;;;18.38;16.95;;;1203.90;1203.20;;;;;;4990138;28;20109;-64
2023/08/21 07:30:24;;;;;;;18.70;17.33;;;1178.00;1228.80;;;;;;4990117;28;20520;-63
2023/08/21 07:32:50;;;;;;;18.40;16.92;;;1204.10;1177.60;;;;;;4990189;28;20128;-64
2023/08/21 07:35:16;;;;;;;19.48;17.60;;;1228.80;1177.60;;;;;;4989904;28;20556;-64
2023/08/21 07:37:45;;;;;;;18.73;17.42;;;1228.90;1177.60;;;;;;4989831;28;20050;-63
2023/08/21 07:40:11;;;;;;;18.60;17.23;;;1229.50;1152.00;;;;;;4989391;28;20527;-63
2023/08/21 07:42:37;;;;;;;19.92;18.30;;;1228.80;1203.20;;;;;;4989850;28;20041;-66
2023/08/21 07:45:04;;;;;;;18.60;17.08;;;1229.40;1152.00;;;;;;4971719;28;20030;-63
2023/08/21 07:47:29;;;;;;;20.70;18.83;;;1229.20;1152.00;;;;;;4989538;28;20041;-64
2023/08/21 07:49:58;;;;;;;19.83;18.10;;;1229.50;1152.00;;;;;;4989575;28;20022;-63
2023/08/21 07:52:24;;;;;;;18.40;17.00;;;1229.40;1152.00;;;;;;4989744;28;20026;-63
2023/08/21 07:54:53;;;;;;;19.45;18.25;;;1229.50;1152.00;;;;;;4989722;28;20026;-63
2023/08/21 07:57:19;;;;;;;19.70;18.10;;;1254.50;1126.40;;;;;;4989728;28;20023;-65
2023/08/21 07:59:45;;;;;;;20.17;18.60;;;1254.50;1152.00;;;;;;4989800;28;20026;-64
2023/08/21 08:02:12;;;;;;;20.73;19.00;;;1254.50;1152.00;;;;;;4989454;28;20538;-63
2023/08/21 08:04:38;;;;;;;21.00;19.52;;;1229.40;1126.40;;;;;;4989346;28;20030;-63
2023/08/21 08:07:04;;;;;;;20.17;18.67;;;1203.90;1177.60;;;;;;4990020;28;20407;-65
2023/08/21 08:09:30;;;;;;;19.48;18.00;;;1203.90;1152.00;;;;;;4989608;28;20109;-64
2023/08/21 08:11:56;;;;;;;19.83;18.52;;;1228.80;1177.60;;;;;;4989764;28;20033;-63
2023/08/21 08:14:22;;;;;;;19.08;17.75;;;1229.40;1152.00;;;;;;4989444;28;20054;-64
2023/08/21 08:16:47;;;;;;;21.00;19.10;;;1254.40;1152.00;;;;;;4991750;28;20026;-65
2023/08/21 08:19:13;;;;;;;20.25;18.17;;;1229.40;1152.00;;;;;;4993213;28;20484;-64
2023/08/21 08:21:39;;;;;;;19.15;17.85;;;1229.50;1126.40;;;;;;4992633;28;20040;-63
2023/08/21 08:24:05;;;;;;;19.17;17.80;;;1254.50;1126.40;;;;;;4993306;28;20044;-64
2023/08/21 08:26:30;;;;;;;19.77;18.13;;;1254.50;1126.40;;;;;;4992940;28;20110;-66
2023/08/21 08:28:56;;;;;;;21.33;19.77;;;1254.60;1126.40;;;;;;4992657;28;20130;-64
2023/08/21 08:31:23;;;;;;;19.73;18.15;;;1229.50;1126.40;;;;;;4993220;28;20030;-65
2023/08/21 08:33:49;;;;;;;20.40;19.10;;;1229.50;1126.40;;;;;;4992872;28;20097;-63
2023/08/21 08:36:15;;;;;;;19.20;17.88;;;1228.90;1152.00;;;;;;4992997;28;20034;-64
2023/08/21 08:38:41;;;;;;;20.45;18.80;;;1203.90;1152.00;;;;;;4992648;28;20424;-64
2023/08/21 08:41:11;;;;;;;18.48;17.17;;;1203.30;1152.00;;;;;;4992736;28;20045;-63
2023/08/21 08:43:40;;;;;;;18.45;17.15;;;1152.20;1203.20;;;;;;4980622;28;20080;-65
2023/08/21 08:46:09;;;;;;;18.00;16.13;;;1100.80;1305.60;;;;;;4992738;28;20653;-62
2023/08/21 08:48:36;;;;;;;17.98;16.45;;;1075.20;1331.20;;;;;;4993163;28;20026;-64
2023/08/21 08:51:06;;;;;;;17.98;16.52;;;1024.20;1408.00;;;;;;4992416;28;20065;-63
2023/08/21 08:53:32;;;;;;;17.55;16.00;;;999.30;1433.60;;;;;;4993007;28;20019;-65
2023/08/21 08:55:58;;;;;;;19.20;17.48;;;998.60;1459.20;;;;;;4992345;28;20022;-63
2023/08/21 08:58:24;;;;;;;19.77;18.08;;;998.60;1433.60;;;;;;4992141;28;20074;-63
2023/08/21 09:00:50;;;;;;;19.40;17.63;;;973.50;1433.60;;;;;;4992355;28;20046;-63
2023/08/21 09:03:16;;;;;;;18.73;17.13;;;973.20;1484.80;;;;;;4992344;28;20030;-64
2023/08/21 09:05:42;;;;;;;18.70;17.08;;;948.10;1484.80;;;;;;4992171;28;20480;-64
2023/08/21 09:08:12;;;;;;;18.08;16.52;;;972.80;1510.40;;;;;;4992280;28;20030;-65
2023/08/21 09:10:40;;;;;;;19.90;18.20;;;973.10;1510.40;;;;;;4991841;28;20112;-65
2023/08/21 09:13:16;;;;;;;18.08;16.52;;;973.10;1484.80;;;;;;4992261;28;20026;-65
2023/08/21 09:15:47;;;;;;;17.60;15.90;;;973.10;1484.80;;;;;;4991709;28;20042;-65
2023/08/21 09:18:14;;;;;;;17.40;15.60;;;972.80;1510.40;;;;;;4974792;28;20042;-63
2023/08/21 09:20:41;;;;;;;17.17;15.65;;;947.90;1510.40;;;;;;4991607;28;20134;-64
2023/08/21 09:23:07;;;;;;;17.83;16.05;;;948.00;1561.60;;;;;;4991809;28;20473;-66
2023/08/21 09:25:38;;;;;;;17.05;15.30;;;948.10;1536.00;;;;;;4979476;28;20034;-63
2023/08/21 09:28:06;;;;;;;17.92;16.25;;;947.50;1536.00;;;;;;4991899;28;20018;-63
2023/08/21 09:30:47;;;;;;;19.33;17.33;;;948.00;1561.60;;;;;;4991781;28;20022;-65
2023/08/21 09:33:13;;;;;;;19.65;17.95;;;947.80;1510.40;;;;;;4991795;28;20101;-62
2023/08/21 09:35:41;;;;;;;17.77;16.15;;;948.10;1510.40;;;;;;4991550;28;20105;-65
2023/08/21 09:38:09;;;;;;;19.27;17.42;;;947.70;1561.60;;;;;;4991416;28;20068;-63
2023/08/21 09:40:38;;;;;;;18.60;17.00;;;948.10;1561.60;;;;;;4991624;28;20388;-64
2023/08/21 09:43:04;;;;;;;17.50;15.68;;;947.80;1561.60;;;;;;4991750;28;20030;-64
2023/08/21 09:45:30;;;;;;;19.30;17.40;;;947.70;1536.00;;;;;;4991426;28;20018;-63
2023/08/21 09:47:58;;;;;;;18.02;16.40;;;947.30;1561.60;;;;;;4991625;28;20037;-64
2023/08/21 09:50:25;;;;;;;17.38;15.77;;;947.70;1587.20;;;;;;4991488;28;20034;-64
2023/08/21 09:52:51;;;;;;;16.55;15.15;;;947.80;1536.00;;;;;;4991618;28;20410;-63
2023/08/21 09:55:18;;;;;;;17.60;16.00;;;947.70;1587.20;;;;;;4991287;28;20042;-65
2023/08/21 09:57:45;;;;;;;19.60;16.50;;;948.10;1536.00;;;;;;4991640;28;20018;-65
2023/08/21 10:00:20;;;;;;;17.17;15.32;;;947.60;1612.80;;;;;;4990946;28;20500;-63
2023/08/21 10:02:50;;;;;;;18.23;15.82;;;922.50;1612.80;;;;;;4991033;28;20034;-64
2023/08/21 10:05:17;;;;;;;17.73;16.00;;;922.30;1612.80;;;;;;4991060;28;20160;-64
2023/08/21 10:07:48;;;;;;;15.57;14.23;;;922.10;1638.40;;;;;;4991080;28;20110;-64
2023/08/21 10:10:14;;;;;;;16.73;15.25;;;922.00;1638.40;;;;;;4991130;28;20153;-63
2023/08/21 10:12:40;;;;;;;17.13;15.63;;;922.00;1664.00;;;;;;4990804;28;20027;-63
2023/08/21 10:15:11;;;;;;;17.15;15.65;;;922.10;1638.40;;;;;;4991058;28;20202;-63
2023/08/21 10:17:38;;;;;;;16.00;14.30;;;922.30;1638.40;;;;;;4990793;28;20069;-63
2023/08/21 10:20:07;;;;;;;15.18;13.80;;;921.80;1587.20;;;;;;4990788;28;20026;-63
2023/08/21 10:22:46;;;;;;;15.98;14.50;;;896.30;1587.20;;;;;;4990892;28;20022;-63
2023/08/21 10:25:22;;;;;;;15.32;13.95;;;871.30;1612.80;;;;;;4991137;28;20030;-63
2023/08/21 10:27:53;;;;;;;17.55;15.82;;;896.00;1638.40;;;;;;4990762;28;20018;-63
2023/08/21 10:30:27;;;;;;;14.50;13.20;;;896.40;1612.80;;;;;;4990625;28;20551;-63
2023/08/21 10:32:55;;;;;;;15.70;14.30;;;871.30;1587.20;;;;;;4990840;28;20105;-63
2023/08/21 10:35:23;;;;;;;15.43;14.18;;;896.30;1587.20;;;;;;4990752;28;20026;-63
2023/08/21 10:38:10;;;;;;;13.73;12.50;;;896.30;1587.20;;;;;;4990531;28;20105;-64
2023/08/21 10:40:37;;;;;;;16.73;13.70;;;896.10;1587.20;;;;;;4990346;28;20041;-63
2023/08/21 10:43:03;;;;;;;15.35;13.65;;;871.20;1612.80;;;;;;4990364;28;20089;-63
2023/08/21 10:45:30;;;;;;;15.93;13.50;;;870.80;1664.00;;;;;;4990447;28;20030;-63
2023/08/21 10:48:00;;;;;;;13.68;12.38;;;871.10;1638.40;;;;;;4990600;28;20031;-64
2023/08/21 10:50:26;;;;;;;13.68;12.40;;;870.90;1638.40;;;;;;4990579;28;20085;-63
2023/08/21 10:52:53;;;;;;;14.35;13.13;;;871.20;1612.80;;;;;;4990628;28;20464;-63
2023/08/21 10:55:20;;;;;;;14.68;13.38;;;871.10;1612.80;;;;;;4990495;28;20026;-63
2023/08/21 10:57:49;;;;;;;17.45;14.38;;;871.10;1587.20;;;;;;4990543;28;20029;-64
2023/08/21 11:00:17;;;;;;;15.95;14.00;;;871.10;1638.40;;;;;;4990439;28;20539;-64
2023/08/21 11:02:49;;;;;;;13.13;11.93;;;871.20;1612.80;;;;;;4990209;28;20044;-63
2023/08/21 11:05:15;;;;;;;15.10;13.70;;;871.10;1612.80;;;;;;4990240;28;20034;-65
2023/08/21 11:07:46;;;;;;;14.20;12.82;;;871.10;1612.80;;;;;;4990054;28;20023;-63
2023/08/21 11:10:17;;;;;;;15.77;14.27;;;870.90;1612.80;;;;;;4989988;28;20044;-64
2023/08/21 11:12:50;;;;;;;13.65;12.45;;;871.30;1612.80;;;;;;4990211;28;20026;-65
2023/08/21 11:15:16;;;;;;;;;;;871.30;1561.60;;;;;;4989999;28;20046;-63
2023/08/21 11:17:42;;;;;;;15.23;13.73;;;896.20;1561.60;;;;;;4990021;28;19912;-64
2023/08/21 11:20:08;;;;;;;14.82;13.45;;;896.40;1587.20;;;;;;4989559;28;20109;-63
2023/08/21 11:22:34;;;;;;;13.93;12.52;;;896.20;1561.60;;;;;;4989877;28;20424;-64
2023/08/21 11:24:59;;;;;;;15.68;14.13;;;896.10;1587.20;;;;;;4989639;28;20026;-63
2023/08/21 11:27:25;;;;;;;14.23;12.82;;;896.00;1587.20;;;;;;4989879;28;20029;-63
2023/08/21 11:29:52;;;;;;;15.10;13.52;;;871.20;1612.80;;;;;;4989093;28;20064;-63
2023/08/21 11:32:23;;;;;;;15.88;14.48;;;871.30;1587.20;;;;;;4989596;28;20022;-64
2023/08/21 11:34:51;;;;;;;19.77;14.63;;;871.10;1612.80;;;;;;4989670;28;20019;-63
2023/08/21 11:37:19;;;;;;;15.95;14.30;;;870.70;1638.40;;;;;;4989536;28;20030;-63
2023/08/21 11:39:51;;;;;;;15.60;14.20;;;870.90;1638.40;;;;;;4989633;28;20497;-62
2023/08/21 11:42:18;;;;;;;15.68;14.05;;;896.00;1664.00;;;;;;4989731;28;20034;-63
2023/08/21 11:44:52;;;;;;;16.58;14.95;;;896.20;1587.20;;;;;;4989628;28;20837;-63
2023/08/21 11:47:19;;;;;;;16.08;14.43;;;896.00;1561.60;;;;;;4989975;28;20105;-63
2023/08/21 11:49:49;;;;;;;13.95;12.55;;;896.00;1587.20;;;;;;4989885;28;20760;-62
2023/08/21 11:52:20;;;;;;;14.70;13.45;;;896.00;1587.20;;;;;;4992941;28;20038;-63
2023/08/21 11:54:48;;;;;;;16.17;14.50;;;871.20;1612.80;;;;;;4980668;28;20026;-63